sensor_id;sensor_type;location;lat;lon;timestamp;P1;durP1;ratioP1;P2;durP2;ratioP2
64252;SDS011;50592;52.958;-7.470;2023-03-24T00:01:27;14.55;;;2.63;;
64252;SDS011;50592;52.958;-7.470;2023-03-24T00:03:57;13.00;;;1.92;;
64252;SDS011;50592;52.958;-7.470;2023-03-24T00:06:28;8.30;;;2.03;;
64252;SDS011;50592;52.958;-7.470;2023-03-24T00:09:02;10.23;;;1.50;;
64252;SDS011;50592;52.958;-7.470;2023-03-24T00:11:33;8.52;;;1.98;;
64252;SDS011;50592;52.958;-7.470;2023-03-24T00:14:03;7.20;;;1.85;;
64252;SDS011;50592;52.958;-7.470;2023-03-24T00:16:31;12.40;;;1.98;;
64252;SDS011;50592;52.958;-7.470;2023-03-24T00:19:02;9.00;;;1.98;;
64252;SDS011;50592;52.958;-7.470;2023-03-24T00:21:29;8.52;;;1.67;;
64252;SDS011;50592;52.958;-7.470;2023-03-24T00:24:00;14.13;;;1.85;;
64252;SDS011;50592;52.958;-7.470;2023-03-24T00:26:29;11.43;;;2.03;;
64252;SDS011;50592;52.958;-7.470;2023-03-24T00:28:58;10.23;;;2.08;;
64252;SDS011;50592;52.958;-7.470;2023-03-24T00:31:25;13.63;;;1.75;;
64252;SDS011;50592;52.958;-7.470;2023-03-24T00:33:54;15.82;;;2.13;;
64252;SDS011;50592;52.958;-7.470;2023-03-24T00:36:21;11.32;;;1.65;;
64252;SDS011;50592;52.958;-7.470;2023-03-24T00:38:52;13.77;;;1.88;;
64252;SDS011;50592;52.958;-7.470;2023-03-24T00:41:19;16.95;;;3.92;;
64252;SDS011;50592;52.958;-7.470;2023-03-24T00:43:49;14.50;;;1.88;;
64252;SDS011;50592;52.958;-7.470;2023-03-24T00:46:16;11.05;;;1.98;;
64252;SDS011;50592;52.958;-7.470;2023-03-24T00:51:37;11.93;;;1.77;;
64252;SDS011;50592;52.958;-7.470;2023-03-24T00:54:10;10.25;;;1.63;;
64252;SDS011;50592;52.958;-7.470;2023-03-24T00:56:41;12.27;;;2.00;;
64252;SDS011;50592;52.958;-7.470;2023-03-24T00:59:11;15.60;;;1.65;;
64252;SDS011;50592;52.958;-7.470;2023-03-24T01:01:39;11.18;;;2.58;;
64252;SDS011;50592;52.958;-7.470;2023-03-24T01:04:09;11.93;;;2.03;;
64252;SDS011;50592;52.958;-7.470;2023-03-24T01:06:36;16.48;;;1.88;;
64252;SDS011;50592;52.958;-7.470;2023-03-24T01:09:08;13.00;;;2.63;;
64252;SDS011;50592;52.958;-7.470;2023-03-24T01:11:40;19.85;;;3.67;;
64252;SDS011;50592;52.958;-7.470;2023-03-24T01:14:11;14.25;;;2.05;;
64252;SDS011;50592;52.958;-7.470;2023-03-24T01:16:41;11.48;;;1.63;;
64252;SDS011;50592;52.958;-7.470;2023-03-24T01:19:11;13.57;;;1.70;;
64252;SDS011;50592;52.958;-7.470;2023-03-24T01:21:39;7.68;;;1.83;;
64252;SDS011;50592;52.958;-7.470;2023-03-24T01:24:09;13.75;;;1.73;;
64252;SDS011;50592;52.958;-7.470;2023-03-24T01:26:36;10.13;;;1.42;;
64252;SDS011;50592;52.958;-7.470;2023-03-24T01:29:06;12.52;;;1.73;;
64252;SDS011;50592;52.958;-7.470;2023-03-24T01:31:36;6.50;;;1.50;;
64252;SDS011;50592;52.958;-7.470;2023-03-24T01:34:06;11.32;;;1.90;;
64252;SDS011;50592;52.958;-7.470;2023-03-24T01:36:32;11.73;;;1.80;;
64252;SDS011;50592;52.958;-7.470;2023-03-24T01:39:02;16.58;;;2.55;;
64252;SDS011;50592;52.958;-7.470;2023-03-24T01:41:32;12.98;;;1.83;;
64252;SDS011;50592;52.958;-7.470;2023-03-24T01:44:23;10.77;;;2.60;;
64252;SDS011;50592;52.958;-7.470;2023-03-24T01:46:56;16.27;;;2.10;;
64252;SDS011;50592;52.958;-7.470;2023-03-24T01:52:31;16.75;;;2.28;;
64252;SDS011;50592;52.958;-7.470;2023-03-24T01:55:05;9.45;;;1.50;;
64252;SDS011;50592;52.958;-7.470;2023-03-24T01:57:38;6.32;;;1.55;;
64252;SDS011;50592;52.958;-7.470;2023-03-24T02:00:12;10.75;;;2.05;;
64252;SDS011;50592;52.958;-7.470;2023-03-24T02:03:17;9.73;;;1.90;;
64252;SDS011;50592;52.958;-7.470;2023-03-24T02:05:52;12.20;;;1.77;;
64252;SDS011;50592;52.958;-7.470;2023-03-24T02:11:18;10.07;;;1.90;;
64252;SDS011;50592;52.958;-7.470;2023-03-24T02:33:47;17.30;;;1.70;;
64252;SDS011;50592;52.958;-7.470;2023-03-24T02:53:06;9.00;;;1.15;;
64252;SDS011;50592;52.958;-7.470;2023-03-24T02:56:08;10.30;;;1.50;;
64252;SDS011;50592;52.958;-7.470;2023-03-24T02:58:46;13.82;;;2.40;;
64252;SDS011;50592;52.958;-7.470;2023-03-24T03:04:24;11.93;;;1.98;;
64252;SDS011;50592;52.958;-7.470;2023-03-24T03:06:58;10.32;;;1.65;;
64252;SDS011;50592;52.958;-7.470;2023-03-24T03:09:48;14.25;;;1.60;;
64252;SDS011;50592;52.958;-7.470;2023-03-24T03:12:21;19.23;;;1.90;;
64252;SDS011;50592;52.958;-7.470;2023-03-24T03:14:55;15.55;;;1.77;;
64252;SDS011;50592;52.958;-7.470;2023-03-24T03:17:34;13.32;;;1.40;;
64252;SDS011;50592;52.958;-7.470;2023-03-24T03:20:11;13.30;;;1.50;;
64252;SDS011;50592;52.958;-7.470;2023-03-24T03:22:47;9.90;;;1.83;;
64252;SDS011;50592;52.958;-7.470;2023-03-24T03:25:20;14.90;;;1.90;;
64252;SDS011;50592;52.958;-7.470;2023-03-24T03:27:54;14.57;;;1.88;;
64252;SDS011;50592;52.958;-7.470;2023-03-24T03:30:33;15.48;;;2.13;;
64252;SDS011;50592;52.958;-7.470;2023-03-24T03:33:11;9.10;;;1.77;;
64252;SDS011;50592;52.958;-7.470;2023-03-24T03:35:51;15.60;;;2.00;;
64252;SDS011;50592;52.958;-7.470;2023-03-24T03:41:03;21.92;;;2.40;;
64252;SDS011;50592;52.958;-7.470;2023-03-24T03:43:35;16.13;;;2.08;;
64252;SDS011;50592;52.958;-7.470;2023-03-24T03:46:04;14.27;;;2.08;;
64252;SDS011;50592;52.958;-7.470;2023-03-24T03:48:35;17.40;;;2.30;;
64252;SDS011;50592;52.958;-7.470;2023-03-24T03:51:06;18.77;;;2.50;;
64252;SDS011;50592;52.958;-7.470;2023-03-24T03:53:47;15.73;;;2.83;;
64252;SDS011;50592;52.958;-7.470;2023-03-24T03:56:21;22.00;;;1.85;;
64252;SDS011;50592;52.958;-7.470;2023-03-24T03:59:34;16.63;;;2.40;;
64252;SDS011;50592;52.958;-7.470;2023-03-24T04:02:22;19.55;;;2.72;;
64252;SDS011;50592;52.958;-7.470;2023-03-24T04:05:15;21.30;;;3.22;;
64252;SDS011;50592;52.958;-7.470;2023-03-24T04:20:08;20.13;;;2.85;;
64252;SDS011;50592;52.958;-7.470;2023-03-24T04:25:27;21.17;;;2.90;;
64252;SDS011;50592;52.958;-7.470;2023-03-24T04:30:53;18.33;;;3.88;;
64252;SDS011;50592;52.958;-7.470;2023-03-24T04:33:41;22.27;;;3.03;;
64252;SDS011;50592;52.958;-7.470;2023-03-24T04:36:20;23.13;;;2.25;;
64252;SDS011;50592;52.958;-7.470;2023-03-24T04:39:24;16.42;;;2.33;;
64252;SDS011;50592;52.958;-7.470;2023-03-24T04:41:57;26.90;;;3.28;;
64252;SDS011;50592;52.958;-7.470;2023-03-24T04:44:31;20.77;;;2.58;;
64252;SDS011;50592;52.958;-7.470;2023-03-24T04:47:53;17.70;;;2.90;;
64252;SDS011;50592;52.958;-7.470;2023-03-24T04:50:59;13.38;;;1.95;;
64252;SDS011;50592;52.958;-7.470;2023-03-24T04:53:46;16.88;;;2.72;;
64252;SDS011;50592;52.958;-7.470;2023-03-24T04:59:05;17.52;;;2.55;;
64252;SDS011;50592;52.958;-7.470;2023-03-24T05:01:33;13.50;;;2.15;;
64252;SDS011;50592;52.958;-7.470;2023-03-24T05:04:40;18.25;;;2.47;;
64252;SDS011;50592;52.958;-7.470;2023-03-24T05:07:14;20.67;;;3.63;;
64252;SDS011;50592;52.958;-7.470;2023-03-24T05:09:47;17.35;;;2.88;;
64252;SDS011;50592;52.958;-7.470;2023-03-24T05:12:17;15.85;;;2.40;;
64252;SDS011;50592;52.958;-7.470;2023-03-24T05:15:06;13.82;;;2.47;;
64252;SDS011;50592;52.958;-7.470;2023-03-24T05:17:35;24.00;;;3.25;;
64252;SDS011;50592;52.958;-7.470;2023-03-24T05:20:03;26.13;;;3.88;;
64252;SDS011;50592;52.958;-7.470;2023-03-24T05:22:40;19.95;;;2.53;;
64252;SDS011;50592;52.958;-7.470;2023-03-24T05:25:07;18.55;;;2.70;;
64252;SDS011;50592;52.958;-7.470;2023-03-24T05:27:36;13.85;;;2.10;;
64252;SDS011;50592;52.958;-7.470;2023-03-24T05:30:24;12.02;;;2.03;;
64252;SDS011;50592;52.958;-7.470;2023-03-24T05:33:02;25.02;;;3.10;;
64252;SDS011;50592;52.958;-7.470;2023-03-24T05:35:28;17.65;;;4.00;;
64252;SDS011;50592;52.958;-7.470;2023-03-24T05:37:58;23.25;;;3.70;;
64252;SDS011;50592;52.958;-7.470;2023-03-24T05:40:24;16.27;;;2.75;;
64252;SDS011;50592;52.958;-7.470;2023-03-24T05:43:03;18.90;;;3.00;;
64252;SDS011;50592;52.958;-7.470;2023-03-24T05:45:36;20.40;;;3.05;;
64252;SDS011;50592;52.958;-7.470;2023-03-24T05:48:04;21.45;;;2.30;;
64252;SDS011;50592;52.958;-7.470;2023-03-24T05:50:52;15.82;;;2.53;;
64252;SDS011;50592;52.958;-7.470;2023-03-24T05:53:21;17.55;;;2.20;;
64252;SDS011;50592;52.958;-7.470;2023-03-24T05:56:07;33.92;;;3.40;;
64252;SDS011;50592;52.958;-7.470;2023-03-24T05:58:59;20.52;;;3.63;;
64252;SDS011;50592;52.958;-7.470;2023-03-24T06:01:59;14.85;;;2.47;;
64252;SDS011;50592;52.958;-7.470;2023-03-24T06:04:38;15.23;;;2.90;;
64252;SDS011;50592;52.958;-7.470;2023-03-24T06:07:16;22.40;;;2.42;;
64252;SDS011;50592;52.958;-7.470;2023-03-24T06:09:47;21.02;;;3.83;;
64252;SDS011;50592;52.958;-7.470;2023-03-24T06:12:18;17.70;;;2.63;;
64252;SDS011;50592;52.958;-7.470;2023-03-24T06:14:59;22.92;;;3.30;;
64252;SDS011;50592;52.958;-7.470;2023-03-24T06:17:30;21.77;;;2.90;;
64252;SDS011;50592;52.958;-7.470;2023-03-24T06:20:05;19.15;;;3.22;;
64252;SDS011;50592;52.958;-7.470;2023-03-24T06:22:45;22.48;;;2.65;;
64252;SDS011;50592;52.958;-7.470;2023-03-24T06:25:19;23.63;;;3.22;;
64252;SDS011;50592;52.958;-7.470;2023-03-24T06:27:57;18.95;;;3.10;;
64252;SDS011;50592;52.958;-7.470;2023-03-24T06:30:32;18.98;;;3.25;;
64252;SDS011;50592;52.958;-7.470;2023-03-24T06:32:59;22.08;;;3.42;;
64252;SDS011;50592;52.958;-7.470;2023-03-24T06:35:28;27.20;;;2.92;;
64252;SDS011;50592;52.958;-7.470;2023-03-24T06:38:04;22.40;;;3.03;;
64252;SDS011;50592;52.958;-7.470;2023-03-24T06:40:35;25.48;;;3.63;;
64252;SDS011;50592;52.958;-7.470;2023-03-24T06:43:06;22.00;;;3.50;;
64252;SDS011;50592;52.958;-7.470;2023-03-24T06:45:38;23.85;;;4.22;;
64252;SDS011;50592;52.958;-7.470;2023-03-24T06:48:13;14.43;;;2.38;;
64252;SDS011;50592;52.958;-7.470;2023-03-24T06:50:40;32.42;;;4.75;;
64252;SDS011;50592;52.958;-7.470;2023-03-24T06:53:10;21.10;;;2.55;;
64252;SDS011;50592;52.958;-7.470;2023-03-24T06:55:37;19.65;;;3.28;;
64252;SDS011;50592;52.958;-7.470;2023-03-24T06:58:08;18.60;;;2.83;;
64252;SDS011;50592;52.958;-7.470;2023-03-24T07:00:41;17.10;;;2.80;;
64252;SDS011;50592;52.958;-7.470;2023-03-24T07:03:36;24.15;;;3.05;;
64252;SDS011;50592;52.958;-7.470;2023-03-24T07:06:26;16.25;;;2.40;;
64252;SDS011;50592;52.958;-7.470;2023-03-24T07:09:09;11.32;;;2.33;;
64252;SDS011;50592;52.958;-7.470;2023-03-24T07:11:37;22.65;;;3.13;;
64252;SDS011;50592;52.958;-7.470;2023-03-24T07:14:06;21.33;;;2.28;;
64252;SDS011;50592;52.958;-7.470;2023-03-24T07:16:34;13.77;;;2.13;;
64252;SDS011;50592;52.958;-7.470;2023-03-24T07:19:28;18.38;;;2.38;;
64252;SDS011;50592;52.958;-7.470;2023-03-24T07:22:17;8.90;;;1.80;;
64252;SDS011;50592;52.958;-7.470;2023-03-24T07:25:04;16.98;;;2.08;;
64252;SDS011;50592;52.958;-7.470;2023-03-24T07:27:49;14.90;;;2.00;;
64252;SDS011;50592;52.958;-7.470;2023-03-24T07:30:19;15.73;;;2.47;;
64252;SDS011;50592;52.958;-7.470;2023-03-24T07:32:48;9.35;;;1.80;;
64252;SDS011;50592;52.958;-7.470;2023-03-24T07:35:16;18.58;;;2.55;;
64252;SDS011;50592;52.958;-7.470;2023-03-24T07:37:46;16.08;;;1.77;;
64252;SDS011;50592;52.958;-7.470;2023-03-24T07:40:17;13.00;;;3.40;;
64252;SDS011;50592;52.958;-7.470;2023-03-24T07:42:47;9.48;;;2.00;;
64252;SDS011;50592;52.958;-7.470;2023-03-24T07:45:43;14.00;;;1.88;;
64252;SDS011;50592;52.958;-7.470;2023-03-24T07:48:14;10.57;;;2.17;;
64252;SDS011;50592;52.958;-7.470;2023-03-24T07:50:44;15.43;;;1.85;;
64252;SDS011;50592;52.958;-7.470;2023-03-24T07:53:34;11.27;;;1.92;;
64252;SDS011;50592;52.958;-7.470;2023-03-24T07:56:01;12.82;;;1.80;;
64252;SDS011;50592;52.958;-7.470;2023-03-24T07:58:30;18.25;;;2.35;;
64252;SDS011;50592;52.958;-7.470;2023-03-24T08:01:08;15.07;;;2.60;;
64252;SDS011;50592;52.958;-7.470;2023-03-24T08:03:43;11.35;;;1.88;;
64252;SDS011;50592;52.958;-7.470;2023-03-24T08:06:15;14.75;;;2.38;;
64252;SDS011;50592;52.958;-7.470;2023-03-24T08:08:51;16.75;;;2.30;;
64252;SDS011;50592;52.958;-7.470;2023-03-24T08:11:17;14.13;;;2.20;;
64252;SDS011;50592;52.958;-7.470;2023-03-24T08:13:46;16.20;;;2.63;;
64252;SDS011;50592;52.958;-7.470;2023-03-24T08:16:13;16.75;;;2.35;;
64252;SDS011;50592;52.958;-7.470;2023-03-24T08:18:43;23.52;;;3.85;;
64252;SDS011;50592;52.958;-7.470;2023-03-24T08:21:10;12.30;;;2.40;;
64252;SDS011;50592;52.958;-7.470;2023-03-24T08:23:39;16.20;;;2.50;;
64252;SDS011;50592;52.958;-7.470;2023-03-24T08:26:06;17.40;;;2.45;;
64252;SDS011;50592;52.958;-7.470;2023-03-24T08:28:40;18.98;;;2.88;;
64252;SDS011;50592;52.958;-7.470;2023-03-24T08:31:10;18.40;;;2.63;;
64252;SDS011;50592;52.958;-7.470;2023-03-24T08:33:40;14.13;;;2.45;;
64252;SDS011;50592;52.958;-7.470;2023-03-24T08:36:10;18.77;;;2.65;;
64252;SDS011;50592;52.958;-7.470;2023-03-24T08:38:40;13.07;;;2.33;;
64252;SDS011;50592;52.958;-7.470;2023-03-24T08:41:07;13.52;;;2.45;;
64252;SDS011;50592;52.958;-7.470;2023-03-24T08:43:36;16.65;;;3.15;;
64252;SDS011;50592;52.958;-7.470;2023-03-24T08:46:05;14.23;;;3.20;;
64252;SDS011;50592;52.958;-7.470;2023-03-24T08:48:36;14.73;;;2.72;;
64252;SDS011;50592;52.958;-7.470;2023-03-24T08:51:17;13.18;;;2.22;;
64252;SDS011;50592;52.958;-7.470;2023-03-24T08:53:47;18.67;;;2.22;;
64252;SDS011;50592;52.958;-7.470;2023-03-24T08:56:18;16.52;;;2.80;;
64252;SDS011;50592;52.958;-7.470;2023-03-24T08:58:49;19.17;;;2.72;;
64252;SDS011;50592;52.958;-7.470;2023-03-24T09:01:21;11.57;;;1.98;;
64252;SDS011;50592;52.958;-7.470;2023-03-24T09:03:48;15.82;;;2.28;;
64252;SDS011;50592;52.958;-7.470;2023-03-24T09:06:16;14.98;;;2.38;;
64252;SDS011;50592;52.958;-7.470;2023-03-24T09:08:44;16.42;;;2.95;;
64252;SDS011;50592;52.958;-7.470;2023-03-24T09:11:16;20.90;;;2.38;;
64252;SDS011;50592;52.958;-7.470;2023-03-24T09:13:44;12.15;;;1.80;;
64252;SDS011;50592;52.958;-7.470;2023-03-24T09:16:15;19.80;;;3.13;;
64252;SDS011;50592;52.958;-7.470;2023-03-24T09:18:43;18.10;;;2.50;;
64252;SDS011;50592;52.958;-7.470;2023-03-24T09:21:12;13.15;;;2.72;;
64252;SDS011;50592;52.958;-7.470;2023-03-24T09:23:39;13.07;;;2.35;;
64252;SDS011;50592;52.958;-7.470;2023-03-24T09:26:09;14.43;;;2.25;;
64252;SDS011;50592;52.958;-7.470;2023-03-24T09:28:39;8.30;;;1.42;;
64252;SDS011;50592;52.958;-7.470;2023-03-24T09:31:09;14.70;;;1.70;;
64252;SDS011;50592;52.958;-7.470;2023-03-24T09:33:40;5.80;;;1.58;;
64252;SDS011;50592;52.958;-7.470;2023-03-24T09:36:10;8.10;;;1.45;;
64252;SDS011;50592;52.958;-7.470;2023-03-24T09:38:40;12.40;;;1.77;;
64252;SDS011;50592;52.958;-7.470;2023-03-24T09:41:14;3.97;;;0.82;;
64252;SDS011;50592;52.958;-7.470;2023-03-24T09:46:45;8.75;;;1.50;;
64252;SDS011;50592;52.958;-7.470;2023-03-24T09:49:39;15.88;;;1.50;;
64252;SDS011;50592;52.958;-7.470;2023-03-24T09:52:11;10.82;;;1.65;;
64252;SDS011;50592;52.958;-7.470;2023-03-24T09:57:19;12.73;;;1.70;;
64252;SDS011;50592;52.958;-7.470;2023-03-24T09:59:54;15.23;;;2.65;;
64252;SDS011;50592;52.958;-7.470;2023-03-24T10:02:21;15.02;;;2.53;;
64252;SDS011;50592;52.958;-7.470;2023-03-24T10:04:50;12.82;;;1.65;;
64252;SDS011;50592;52.958;-7.470;2023-03-24T10:07:19;9.60;;;1.77;;
64252;SDS011;50592;52.958;-7.470;2023-03-24T10:09:56;9.93;;;1.80;;
64252;SDS011;50592;52.958;-7.470;2023-03-24T10:31:03;10.15;;;1.33;;
64252;SDS011;50592;52.958;-7.470;2023-03-24T10:33:41;12.13;;;1.60;;
64252;SDS011;50592;52.958;-7.470;2023-03-24T10:36:13;10.55;;;1.77;;
64252;SDS011;50592;52.958;-7.470;2023-03-24T10:38:48;14.10;;;2.10;;
64252;SDS011;50592;52.958;-7.470;2023-03-24T10:41:19;12.07;;;1.80;;
64252;SDS011;50592;52.958;-7.470;2023-03-24T10:43:51;12.30;;;1.98;;
64252;SDS011;50592;52.958;-7.470;2023-03-24T10:46:24;13.10;;;2.35;;
64252;SDS011;50592;52.958;-7.470;2023-03-24T10:51:59;10.55;;;1.10;;
64252;SDS011;50592;52.958;-7.470;2023-03-24T10:54:29;4.03;;;0.95;;
64252;SDS011;50592;52.958;-7.470;2023-03-24T10:59:31;4.82;;;0.95;;
64252;SDS011;50592;52.958;-7.470;2023-03-24T11:09:43;3.63;;;0.90;;
64252;SDS011;50592;52.958;-7.470;2023-03-24T11:12:30;11.20;;;1.30;;
64252;SDS011;50592;52.958;-7.470;2023-03-24T11:15:09;7.05;;;0.95;;
64252;SDS011;50592;52.958;-7.470;2023-03-24T11:17:51;5.05;;;0.90;;
64252;SDS011;50592;52.958;-7.470;2023-03-24T11:23:03;8.65;;;1.65;;
64252;SDS011;50592;52.958;-7.470;2023-03-24T11:25:35;5.30;;;1.05;;
64252;SDS011;50592;52.958;-7.470;2023-03-24T11:28:06;6.47;;;1.20;;
64252;SDS011;50592;52.958;-7.470;2023-03-24T11:33:17;5.85;;;1.17;;
64252;SDS011;50592;52.958;-7.470;2023-03-24T11:35:48;7.82;;;0.90;;
64252;SDS011;50592;52.958;-7.470;2023-03-24T11:38:19;7.93;;;1.40;;
64252;SDS011;50592;52.958;-7.470;2023-03-24T11:41:01;7.70;;;0.75;;
64252;SDS011;50592;52.958;-7.470;2023-03-24T11:43:32;10.88;;;1.73;;
64252;SDS011;50592;52.958;-7.470;2023-03-24T11:46:09;9.07;;;1.23;;
64252;SDS011;50592;52.958;-7.470;2023-03-24T11:51:37;6.45;;;0.82;;
64252;SDS011;50592;52.958;-7.470;2023-03-24T11:54:14;4.47;;;1.13;;
64252;SDS011;50592;52.958;-7.470;2023-03-24T11:56:50;12.18;;;1.48;;
64252;SDS011;50592;52.958;-7.470;2023-03-24T12:02:10;8.05;;;1.15;;
64252;SDS011;50592;52.958;-7.470;2023-03-24T12:10:08;6.90;;;0.82;;
64252;SDS011;50592;52.958;-7.470;2023-03-24T12:39:30;8.48;;;1.35;;
64252;SDS011;50592;52.958;-7.470;2023-03-24T12:42:08;5.93;;;0.90;;
64252;SDS011;50592;52.958;-7.470;2023-03-24T12:53:43;4.68;;;0.82;;
64252;SDS011;50592;52.958;-7.470;2023-03-24T12:56:44;5.05;;;1.10;;
64252;SDS011;50592;52.958;-7.470;2023-03-24T12:59:21;5.45;;;0.90;;
64252;SDS011;50592;52.958;-7.470;2023-03-24T13:02:28;9.00;;;2.10;;
64252;SDS011;50592;52.958;-7.470;2023-03-24T13:04:55;4.40;;;1.30;;
64252;SDS011;50592;52.958;-7.470;2023-03-24T13:07:34;9.80;;;1.23;;
64252;SDS011;50592;52.958;-7.470;2023-03-24T13:10:11;7.07;;;0.98;;
64252;SDS011;50592;52.958;-7.470;2023-03-24T13:13:05;6.60;;;1.00;;
64252;SDS011;50592;52.958;-7.470;2023-03-24T13:15:39;6.47;;;1.20;;
64252;SDS011;50592;52.958;-7.470;2023-03-24T13:18:17;5.20;;;1.02;;
64252;SDS011;50592;52.958;-7.470;2023-03-24T13:23:50;5.78;;;1.20;;
64252;SDS011;50592;52.958;-7.470;2023-03-24T13:31:52;6.55;;;1.20;;
64252;SDS011;50592;52.958;-7.470;2023-03-24T13:34:30;13.27;;;1.15;;
64252;SDS011;50592;52.958;-7.470;2023-03-24T13:37:06;4.57;;;0.80;;
64252;SDS011;50592;52.958;-7.470;2023-03-24T13:39:54;4.13;;;0.52;;
64252;SDS011;50592;52.958;-7.470;2023-03-24T13:45:05;3.55;;;0.60;;
64252;SDS011;50592;52.958;-7.470;2023-03-24T13:50:27;4.03;;;0.52;;
64252;SDS011;50592;52.958;-7.470;2023-03-24T13:53:04;2.03;;;0.70;;
64252;SDS011;50592;52.958;-7.470;2023-03-24T13:55:38;4.97;;;0.40;;
64252;SDS011;50592;52.958;-7.470;2023-03-24T13:58:23;4.80;;;1.17;;
64252;SDS011;50592;52.958;-7.470;2023-03-24T14:03:32;4.20;;;1.08;;
64252;SDS011;50592;52.958;-7.470;2023-03-24T14:06:05;4.35;;;0.88;;
64252;SDS011;50592;52.958;-7.470;2023-03-24T14:08:39;4.07;;;0.57;;
64252;SDS011;50592;52.958;-7.470;2023-03-24T14:11:51;3.50;;;1.52;;
64252;SDS011;50592;52.958;-7.470;2023-03-24T14:16:51;3.40;;;0.80;;
64252;SDS011;50592;52.958;-7.470;2023-03-24T14:22:13;5.30;;;0.88;;
64252;SDS011;50592;52.958;-7.470;2023-03-24T14:24:45;2.53;;;1.02;;
64252;SDS011;50592;52.958;-7.470;2023-03-24T14:32:46;2.38;;;0.52;;
64252;SDS011;50592;52.958;-7.470;2023-03-24T14:40:49;6.55;;;0.60;;
64252;SDS011;50592;52.958;-7.470;2023-03-24T14:53:56;2.60;;;0.70;;
64252;SDS011;50592;52.958;-7.470;2023-03-24T14:56:29;3.92;;;0.55;;
64252;SDS011;50592;52.958;-7.470;2023-03-24T14:59:15;5.97;;;1.05;;
64252;SDS011;50592;52.958;-7.470;2023-03-24T15:05:18;2.92;;;0.40;;
64252;SDS011;50592;52.958;-7.470;2023-03-24T15:08:00;1.73;;;0.43;;
64252;SDS011;50592;52.958;-7.470;2023-03-24T15:11:00;4.10;;;0.73;;
64252;SDS011;50592;52.958;-7.470;2023-03-24T15:13:41;3.92;;;0.40;;
64252;SDS011;50592;52.958;-7.470;2023-03-24T15:18:47;3.80;;;0.60;;
64252;SDS011;50592;52.958;-7.470;2023-03-24T15:24:02;1.23;;;0.30;;
64252;SDS011;50592;52.958;-7.470;2023-03-24T15:26:53;0.10;;;0.10;;
64252;SDS011;50592;52.958;-7.470;2023-03-24T15:29:52;2.63;;;0.40;;
64252;SDS011;50592;52.958;-7.470;2023-03-24T15:32:26;0.82;;;0.40;;
64252;SDS011;50592;52.958;-7.470;2023-03-24T15:35:02;4.03;;;0.47;;
64252;SDS011;50592;52.958;-7.470;2023-03-24T15:40:00;1.85;;;0.55;;
64252;SDS011;50592;52.958;-7.470;2023-03-24T15:42:31;1.38;;;0.30;;
64252;SDS011;50592;52.958;-7.470;2023-03-24T15:48:17;3.25;;;0.75;;
64252;SDS011;50592;52.958;-7.470;2023-03-24T15:50:55;3.58;;;0.60;;
64252;SDS011;50592;52.958;-7.470;2023-03-24T15:53:55;3.10;;;0.47;;
64252;SDS011;50592;52.958;-7.470;2023-03-24T15:56:28;1.75;;;0.38;;
64252;SDS011;50592;52.958;-7.470;2023-03-24T16:01:34;4.57;;;0.57;;
64252;SDS011;50592;52.958;-7.470;2023-03-24T16:04:15;1.92;;;0.60;;
64252;SDS011;50592;52.958;-7.470;2023-03-24T16:06:49;4.53;;;0.70;;
64252;SDS011;50592;52.958;-7.470;2023-03-24T16:09:21;8.18;;;1.00;;
64252;SDS011;50592;52.958;-7.470;2023-03-24T16:11:54;2.95;;;0.60;;
64252;SDS011;50592;52.958;-7.470;2023-03-24T16:14:28;4.38;;;0.80;;
64252;SDS011;50592;52.958;-7.470;2023-03-24T16:17:00;6.65;;;0.73;;
64252;SDS011;50592;52.958;-7.470;2023-03-24T16:19:31;2.97;;;0.90;;
64252;SDS011;50592;52.958;-7.470;2023-03-24T16:22:03;2.05;;;0.60;;
64252;SDS011;50592;52.958;-7.470;2023-03-24T16:24:36;4.65;;;0.65;;
64252;SDS011;50592;52.958;-7.470;2023-03-24T16:27:04;4.50;;;2.42;;
64252;SDS011;50592;52.958;-7.470;2023-03-24T16:29:31;0.90;;;0.40;;
64252;SDS011;50592;52.958;-7.470;2023-03-24T16:32:01;0.30;;;0.25;;
64252;SDS011;50592;52.958;-7.470;2023-03-24T16:34:31;2.25;;;0.38;;
64252;SDS011;50592;52.958;-7.470;2023-03-24T16:37:01;3.83;;;0.60;;
64252;SDS011;50592;52.958;-7.470;2023-03-24T16:39:29;2.33;;;0.50;;
64252;SDS011;50592;52.958;-7.470;2023-03-24T16:41:58;2.47;;;0.63;;
64252;SDS011;50592;52.958;-7.470;2023-03-24T16:44:25;1.38;;;0.30;;
64252;SDS011;50592;52.958;-7.470;2023-03-24T16:46:54;2.05;;;0.63;;
64252;SDS011;50592;52.958;-7.470;2023-03-24T16:49:21;2.35;;;1.02;;
64252;SDS011;50592;52.958;-7.470;2023-03-24T16:51:51;2.65;;;0.50;;
64252;SDS011;50592;52.958;-7.470;2023-03-24T16:54:19;5.40;;;1.80;;
64252;SDS011;50592;52.958;-7.470;2023-03-24T16:56:48;4.15;;;0.50;;
64252;SDS011;50592;52.958;-7.470;2023-03-24T16:59:18;1.48;;;0.65;;
64252;SDS011;50592;52.958;-7.470;2023-03-24T17:01:48;2.03;;;0.60;;
64252;SDS011;50592;52.958;-7.470;2023-03-24T17:04:21;4.55;;;1.23;;
64252;SDS011;50592;52.958;-7.470;2023-03-24T17:06:53;3.20;;;1.02;;
64252;SDS011;50592;52.958;-7.470;2023-03-24T17:09:20;3.08;;;1.05;;
64252;SDS011;50592;52.958;-7.470;2023-03-24T17:11:55;6.88;;;3.13;;
64252;SDS011;50592;52.958;-7.470;2023-03-24T17:14:23;6.25;;;1.38;;
64252;SDS011;50592;52.958;-7.470;2023-03-24T17:16:52;6.22;;;2.40;;
64252;SDS011;50592;52.958;-7.470;2023-03-24T17:19:19;5.72;;;0.80;;
64252;SDS011;50592;52.958;-7.470;2023-03-24T17:21:56;4.32;;;0.90;;
64252;SDS011;50592;52.958;-7.470;2023-03-24T17:24:31;9.75;;;2.70;;
64252;SDS011;50592;52.958;-7.470;2023-03-24T17:27:03;7.35;;;2.13;;
64252;SDS011;50592;52.958;-7.470;2023-03-24T17:29:41;13.23;;;1.88;;
64252;SDS011;50592;52.958;-7.470;2023-03-24T17:32:11;7.05;;;1.60;;
64252;SDS011;50592;52.958;-7.470;2023-03-24T17:34:41;18.00;;;2.60;;
64252;SDS011;50592;52.958;-7.470;2023-03-24T17:37:11;12.75;;;3.53;;
64252;SDS011;50592;52.958;-7.470;2023-03-24T17:39:41;11.75;;;2.08;;
64252;SDS011;50592;52.958;-7.470;2023-03-24T17:42:11;17.00;;;6.40;;
64252;SDS011;50592;52.958;-7.470;2023-03-24T17:44:41;15.82;;;3.38;;
64252;SDS011;50592;52.958;-7.470;2023-03-24T17:47:07;12.00;;;2.92;;
64252;SDS011;50592;52.958;-7.470;2023-03-24T17:49:37;10.40;;;1.63;;
64252;SDS011;50592;52.958;-7.470;2023-03-24T17:52:04;11.05;;;2.33;;
64252;SDS011;50592;52.958;-7.470;2023-03-24T17:54:33;7.03;;;1.30;;
64252;SDS011;50592;52.958;-7.470;2023-03-24T17:56:59;7.03;;;1.40;;
64252;SDS011;50592;52.958;-7.470;2023-03-24T17:59:28;5.55;;;1.45;;
64252;SDS011;50592;52.958;-7.470;2023-03-24T18:01:55;7.57;;;1.27;;
64252;SDS011;50592;52.958;-7.470;2023-03-24T18:04:25;9.90;;;2.10;;
64252;SDS011;50592;52.958;-7.470;2023-03-24T18:06:55;13.88;;;1.75;;
64252;SDS011;50592;52.958;-7.470;2023-03-24T18:09:26;9.60;;;2.67;;
64252;SDS011;50592;52.958;-7.470;2023-03-24T18:11:56;7.70;;;1.70;;
64252;SDS011;50592;52.958;-7.470;2023-03-24T18:14:26;11.45;;;3.08;;
64252;SDS011;50592;52.958;-7.470;2023-03-24T18:16:56;7.40;;;1.92;;
64252;SDS011;50592;52.958;-7.470;2023-03-24T18:19:26;10.07;;;2.30;;
64252;SDS011;50592;52.958;-7.470;2023-03-24T18:21:56;11.20;;;1.38;;
64252;SDS011;50592;52.958;-7.470;2023-03-24T18:24:25;8.02;;;2.45;;
64252;SDS011;50592;52.958;-7.470;2023-03-24T18:26:55;13.13;;;2.30;;
64252;SDS011;50592;52.958;-7.470;2023-03-24T18:29:26;14.82;;;1.55;;
64252;SDS011;50592;52.958;-7.470;2023-03-24T18:31:56;9.45;;;2.05;;
64252;SDS011;50592;52.958;-7.470;2023-03-24T18:34:26;6.72;;;1.42;;
64252;SDS011;50592;52.958;-7.470;2023-03-24T18:36:53;10.27;;;1.98;;
64252;SDS011;50592;52.958;-7.470;2023-03-24T18:39:23;13.13;;;2.03;;
64252;SDS011;50592;52.958;-7.470;2023-03-24T18:41:50;5.65;;;1.30;;
64252;SDS011;50592;52.958;-7.470;2023-03-24T18:44:21;10.05;;;1.75;;
64252;SDS011;50592;52.958;-7.470;2023-03-24T18:46:49;12.60;;;1.95;;
64252;SDS011;50592;52.958;-7.470;2023-03-24T18:49:17;11.38;;;1.88;;